Time;durP1;ratioP1;P1;durP2;ratioP2;P2;SDS_P1;SDS_P2;PMS_P1;PMS_P2;Temp;Humidity;BMP_temperature;BMP_pressure;BME280_temperature;BME280_humidity;BME280_pressure;Samples;Min_cycle;Max_cycle;Signal;HPM_P1;HPM_P2
2021/12/16 00:02:56;;;;;;;71.47;29.73;;;;;;;;;;5030134;28;20111;-67
2021/12/16 00:05:55;;;;;;;67.57;29.92;;;;;;;;;;5036367;28;20044;-67
2021/12/16 00:11:00;;;;;;;72.93;29.58;;;;;;;;;;5044933;28;20098;-67
2021/12/16 00:34:59;;;;;;;75.30;30.70;;;;;;;;;;5048604;28;20554;-67
2021/12/16 00:37:25;;;;;;;75.10;30.42;;;;;;;;;;5035647;28;20025;-66
2021/12/16 00:39:50;;;;;;;71.45;29.33;;;;;;;;;;5053510;28;20537;-67
2021/12/16 00:42:47;;;;;;;71.53;29.73;;;;;;;;;;5053142;28;20025;-67
2021/12/16 00:48:23;;;;;;;71.22;30.50;;;;;;;;;;5024583;28;20382;-66
2021/12/16 00:55:53;;;;;;;71.38;29.92;;;;;;;;;;5053327;28;20031;-65
2021/12/16 00:58:21;;;;;;;71.55;30.27;;;;;;;;;;5035091;28;20044;-66
2021/12/16 01:00:56;;;;;;;70.40;30.48;;;;;;;;;;5052959;28;20017;-66
2021/12/16 01:03:36;;;;;;;74.20;29.77;;;;;;;;;;5047798;28;20053;-65
2021/12/16 01:09:00;;;;;;;69.85;29.80;;;;;;;;;;5033032;28;19924;-67
2021/12/16 01:39:13;;;;;;;67.93;29.80;;;;;;;;;;5032750;28;20540;-67
2021/12/16 01:49:59;;;;;;;68.60;28.05;;;;;;;;;;5032177;28;20489;-67
2021/12/16 01:55:21;;;;;;;80.85;28.65;;;;;;;;;;5052125;28;20055;-67
2021/12/16 01:57:58;;;;;;;66.05;27.98;;;;;;;;;;5034185;28;20017;-67
2021/12/16 02:00:43;;;;;;;65.45;29.13;;;;;;;;;;5051980;28;20117;-67
2021/12/16 02:03:08;;;;;;;75.80;29.20;;;;;;;;;;5050937;28;20023;-67
2021/12/16 02:08:25;;;;;;;56.00;26.83;;;;;;;;;;5032006;28;20497;-66
2021/12/16 02:11:02;;;;;;;65.22;27.63;;;;;;;;;;5025271;28;20600;-66
2021/12/16 02:27:15;;;;;;;73.47;29.52;;;;;;;;;;5032092;28;20454;-67
2021/12/16 02:27:39;;;;;;;69.35;29.52;;;;;;;;;;5031916;28;20109;-67
2021/12/16 02:33:11;;;;;;;68.93;29.10;;;;;;;;;;5030555;28;20125;-67
2021/12/16 02:35:57;;;;;;;79.47;28.38;;;;;;;;;;5031307;28;20072;-67
2021/12/16 02:38:27;;;;;;;64.03;26.65;;;;;;;;;;5031604;28;20017;-68
2021/12/16 02:40:53;;;;;;;67.80;30.10;;;;;;;;;;5031045;28;20057;-66
2021/12/16 02:48:34;;;;;;;63.70;27.85;;;;;;;;;;5051176;28;20031;-69
2021/12/16 02:51:01;;;;;;;68.55;29.02;;;;;;;;;;5051063;28;20013;-68
2021/12/16 02:53:27;;;;;;;70.05;30.13;;;;;;;;;;5051108;28;20031;-69
2021/12/16 02:55:53;;;;;;;71.07;28.60;;;;;;;;;;5051016;28;20092;-69
2021/12/16 02:58:18;;;;;;;64.82;27.67;;;;;;;;;;5042443;28;20021;-67
2021/12/16 03:00:45;;;;;;;69.05;29.23;;;;;;;;;;5031078;28;20458;-69
2021/12/16 03:03:11;;;;;;;72.57;30.30;;;;;;;;;;5032459;28;20466;-69
2021/12/16 03:05:36;;;;;;;65.93;27.60;;;;;;;;;;5050789;28;20040;-68
2021/12/16 03:08:02;;;;;;;68.30;28.63;;;;;;;;;;5031803;28;20021;-69
2021/12/16 03:18:21;;;;;;;59.03;26.55;;;;;;;;;;5030821;28;20056;-69
2021/12/16 03:21:00;;;;;;;67.05;28.80;;;;;;;;;;5030509;28;20024;-68
2021/12/16 03:23:39;;;;;;;72.18;29.80;;;;;;;;;;5030807;28;20027;-68
2021/12/16 03:26:51;;;;;;;81.40;32.40;;;;;;;;;;5030883;28;20100;-69
2021/12/16 03:37:16;;;;;;;69.32;27.30;;;;;;;;;;5050592;28;20476;-69
2021/12/16 03:39:48;;;;;;;68.57;29.42;;;;;;;;;;5050358;28;20024;-67
2021/12/16 03:42:15;;;;;;;75.78;27.15;;;;;;;;;;5050311;28;20040;-67
2021/12/16 03:44:58;;;;;;;75.10;29.65;;;;;;;;;;5052214;28;20048;-69
2021/12/16 03:47:31;;;;;;;67.85;26.13;;;;;;;;;;5054363;28;20021;-68
2021/12/16 03:49:57;;;;;;;60.60;27.80;;;;;;;;;;5053868;28;20029;-69
2021/12/16 03:52:22;;;;;;;67.03;27.80;;;;;;;;;;5053943;28;20491;-68
2021/12/16 03:54:50;;;;;;;74.00;29.65;;;;;;;;;;5054178;28;20104;-69
2021/12/16 03:57:17;;;;;;;78.85;29.98;;;;;;;;;;5054219;28;20017;-68
2021/12/16 03:59:42;;;;;;;65.78;27.98;;;;;;;;;;5054270;28;20033;-69
2021/12/16 04:02:13;;;;;;;91.47;35.03;;;;;;;;;;5048473;28;20040;-69
2021/12/16 04:04:38;;;;;;;;;;;;;;;;;;5054388;28;20111;-68
2021/12/16 04:07:04;;;;;;;77.28;30.30;;;;;;;;;;5053873;28;20050;-69
2021/12/16 04:09:32;;;;;;;90.13;32.58;;;;;;;;;;5054078;28;20283;-68
2021/12/16 04:12:07;;;;;;;98.13;35.65;;;;;;;;;;5053534;28;20097;-69
2021/12/16 04:14:33;;;;;;;89.90;35.53;;;;;;;;;;5058146;22;20033;-87
2021/12/16 04:17:00;;;;;;;110.40;38.47;;;;;;;;;;5053920;28;20094;-88
2021/12/16 04:19:30;;;;;;;101.22;38.40;;;;;;;;;;5036138;28;20028;-87
2021/12/16 04:22:11;;;;;;;109.28;39.97;;;;;;;;;;5053082;28;20443;-87
2021/12/16 04:24:37;;;;;;;110.38;37.03;;;;;;;;;;5055378;28;20056;-88
2021/12/16 04:27:04;;;;;;;109.05;38.22;;;;;;;;;;5055499;28;20078;-88
2021/12/16 04:29:30;;;;;;;122.40;41.92;;;;;;;;;;5056019;28;20162;-87
2021/12/16 04:31:55;;;;;;;111.07;39.03;;;;;;;;;;5038531;28;20090;-88
2021/12/16 04:34:21;;;;;;;119.38;40.95;;;;;;;;;;5053487;28;20675;-87
2021/12/16 04:36:46;;;;;;;107.18;39.75;;;;;;;;;;5035825;28;20017;-87
2021/12/16 04:39:15;;;;;;;115.07;41.30;;;;;;;;;;5036625;28;20396;-87
2021/12/16 04:41:41;;;;;;;112.75;40.60;;;;;;;;;;5057060;28;20298;-86
2021/12/16 04:44:07;;;;;;;106.15;41.75;;;;;;;;;;5035066;28;20017;-87
2021/12/16 04:46:33;;;;;;;97.45;39.85;;;;;;;;;;5038675;28;20017;-86
2021/12/16 04:48:59;;;;;;;110.88;39.35;;;;;;;;;;5046568;28;20032;-86
2021/12/16 04:51:28;;;;;;;105.88;38.40;;;;;;;;;;5046465;28;20043;-85
2021/12/16 04:53:54;;;;;;;107.53;37.08;;;;;;;;;;5052133;28;20021;-86
2021/12/16 04:56:19;;;;;;;111.55;37.75;;;;;;;;;;5045690;28;20120;-87
2021/12/16 04:58:46;;;;;;;97.97;35.95;;;;;;;;;;5033587;28;20021;-87
2021/12/16 05:01:11;;;;;;;105.30;39.47;;;;;;;;;;5051542;28;20125;-88
2021/12/16 05:03:36;;;;;;;102.93;39.50;;;;;;;;;;5051694;28;20587;-87
2021/12/16 05:06:01;;;;;;;123.25;41.45;;;;;;;;;;5034067;28;20091;-87
2021/12/16 05:08:27;;;;;;;96.10;38.85;;;;;;;;;;5051703;28;20013;-87
2021/12/16 05:10:55;;;;;;;110.20;37.60;;;;;;;;;;5033760;28;20480;-87
2021/12/16 05:13:24;;;;;;;104.28;38.97;;;;;;;;;;5034320;28;20059;-87
2021/12/16 05:15:49;;;;;;;106.47;37.65;;;;;;;;;;5033523;28;20049;-86
2021/12/16 05:18:22;;;;;;;101.55;38.08;;;;;;;;;;5034194;28;20020;-88
2021/12/16 05:20:47;;;;;;;108.13;37.67;;;;;;;;;;5033100;28;20553;-85
2021/12/16 05:28:37;;;;;;;;;;;;;;;;;;5052091;28;20017;-87
2021/12/16 05:31:02;;;;;;;103.13;36.45;;;;;;;;;;5033561;28;19909;-87
2021/12/16 05:33:28;;;;;;;102.32;37.03;;;;;;;;;;5034015;28;20097;-86
2021/12/16 05:35:53;;;;;;;91.70;33.47;;;;;;;;;;5033755;28;20023;-86
2021/12/16 05:38:18;;;;;;;90.22;34.65;;;;;;;;;;5034167;28;20108;-87
2021/12/16 05:40:44;;;;;;;105.20;39.17;;;;;;;;;;5031264;28;20539;-88
2021/12/16 05:43:10;;;;;;;103.85;36.83;;;;;;;;;;5033467;28;20534;-88
2021/12/16 05:45:36;;;;;;;94.53;34.85;;;;;;;;;;5033901;28;20013;-87
2021/12/16 05:48:03;;;;;;;108.20;37.42;;;;;;;;;;5051390;28;20131;-86
2021/12/16 05:50:30;;;;;;;108.25;38.53;;;;;;;;;;5050340;28;20025;-87
2021/12/16 05:52:55;;;;;;;111.22;39.58;;;;;;;;;;5050725;28;20021;-88
2021/12/16 05:55:20;;;;;;;117.50;40.50;;;;;;;;;;5034143;28;20021;-87
2021/12/16 05:57:46;;;;;;;106.10;40.35;;;;;;;;;;5033643;28;20637;-87
2021/12/16 06:00:14;;;;;;;105.85;39.70;;;;;;;;;;5050618;28;20464;-88
2021/12/16 06:02:40;;;;;;;118.30;43.10;;;;;;;;;;5033468;28;20032;-86
2021/12/16 06:05:06;;;;;;;109.25;40.30;;;;;;;;;;5051222;28;20078;-87
2021/12/16 06:07:31;;;;;;;126.03;43.75;;;;;;;;;;5033839;28;20024;-85
2021/12/16 06:09:56;;;;;;;116.60;42.28;;;;;;;;;;5037295;28;20116;-86
2021/12/16 06:12:23;;;;;;;117.13;42.50;;;;;;;;;;5071607;28;20013;-86
2021/12/16 06:15:20;;;;;;;125.35;44.42;;;;;;;;;;5058004;28;20013;-87
2021/12/16 06:26:38;;;;;;;119.45;42.60;;;;;;;;;;5049742;28;20440;-85
2021/12/16 06:29:03;;;;;;;123.78;44.22;;;;;;;;;;5049096;28;20063;-86
2021/12/16 06:31:29;;;;;;;124.93;43.53;;;;;;;;;;5054514;28;20009;-86
2021/12/16 06:33:54;;;;;;;114.25;42.22;;;;;;;;;;5073099;28;20044;-86
2021/12/16 06:36:19;;;;;;;120.90;42.00;;;;;;;;;;5054769;28;20013;-86
2021/12/16 06:38:44;;;;;;;127.70;43.13;;;;;;;;;;5053732;28;20307;-87
2021/12/16 06:41:10;;;;;;;114.30;43.13;;;;;;;;;;5071314;28;20060;-86
2021/12/16 06:43:36;;;;;;;118.78;43.22;;;;;;;;;;5052489;28;20033;-85
2021/12/16 06:46:04;;;;;;;124.97;45.08;;;;;;;;;;5050217;28;20021;-86
2021/12/16 06:48:34;;;;;;;122.95;42.75;;;;;;;;;;5054821;28;20032;-86
2021/12/16 06:51:08;;;;;;;125.25;45.03;;;;;;;;;;5053461;28;20028;-86
2021/12/16 06:53:47;;;;;;;115.70;42.65;;;;;;;;;;5055032;28;20024;-86
2021/12/16 06:56:28;;;;;;;113.35;40.45;;;;;;;;;;5055368;28;20017;-86
2021/12/16 07:02:10;;;;;;;109.70;41.17;;;;;;;;;;5026349;28;20021;-85
2021/12/16 07:04:36;;;;;;;121.70;41.75;;;;;;;;;;5049778;23;20068;-65
2021/12/16 07:07:01;;;;;;;118.65;40.75;;;;;;;;;;5030107;28;20056;-65
2021/12/16 07:09:26;;;;;;;117.55;42.63;;;;;;;;;;5030070;28;20033;-65
2021/12/16 07:11:56;;;;;;;107.47;39.97;;;;;;;;;;5030345;28;20017;-65
2021/12/16 07:14:27;;;;;;;117.88;40.15;;;;;;;;;;5030274;28;20553;-66
2021/12/16 07:16:56;;;;;;;106.47;41.05;;;;;;;;;;5030783;28;20032;-65
2021/12/16 07:19:22;;;;;;;110.75;41.38;;;;;;;;;;5029949;28;20026;-65
2021/12/16 07:21:47;;;;;;;101.05;38.45;;;;;;;;;;5030103;28;20032;-65
2021/12/16 07:24:15;;;;;;;113.75;39.92;;;;;;;;;;5030272;28;20083;-66
2021/12/16 07:26:40;;;;;;;115.43;40.55;;;;;;;;;;5030394;28;20036;-66
2021/12/16 07:29:06;;;;;;;116.93;42.05;;;;;;;;;;5030530;28;20017;-66
2021/12/16 07:31:33;;;;;;;105.82;40.25;;;;;;;;;;5030428;28;20051;-66
2021/12/16 07:33:58;;;;;;;114.10;41.60;;;;;;;;;;5030578;28;20413;-66
2021/12/16 07:36:24;;;;;;;103.88;40.03;;;;;;;;;;5030170;28;20029;-66
2021/12/16 07:38:49;;;;;;;105.18;37.65;;;;;;;;;;5030139;28;20060;-66
2021/12/16 07:41:17;;;;;;;105.40;37.83;;;;;;;;;;5029621;28;20056;-67
2021/12/16 07:43:57;;;;;;;106.40;36.22;;;;;;;;;;5030364;28;20248;-67
2021/12/16 07:46:22;;;;;;;115.15;39.42;;;;;;;;;;5030082;28;20025;-67
2021/12/16 07:48:47;;;;;;;101.60;36.42;;;;;;;;;;5030106;28;20021;-67
2021/12/16 07:51:12;;;;;;;110.35;36.90;;;;;;;;;;5029809;28;20265;-67
2021/12/16 07:53:39;;;;;;;111.80;38.95;;;;;;;;;;5030107;28;20512;-66
2021/12/16 07:56:04;;;;;;;117.25;38.63;;;;;;;;;;5029849;28;20049;-66
2021/12/16 07:58:30;;;;;;;114.18;40.10;;;;;;;;;;5030113;28;20056;-67
2021/12/16 08:00:56;;;;;;;109.68;38.75;;;;;;;;;;5026206;28;20037;-66
2021/12/16 08:03:21;;;;;;;113.93;38.63;;;;;;;;;;5030495;28;20014;-66
2021/12/16 08:05:51;;;;;;;103.75;38.33;;;;;;;;;;5048328;28;20104;-66
2021/12/16 08:08:17;;;;;;;116.25;38.92;;;;;;;;;;5030054;28;20030;-66
2021/12/16 08:10:42;;;;;;;124.75;40.67;;;;;;;;;;5029854;28;20454;-66
2021/12/16 08:13:07;;;;;;;134.85;48.38;;;;;;;;;;5029938;28;20105;-66
2021/12/16 08:15:33;;;;;;;127.18;45.67;;;;;;;;;;5030331;28;20063;-66
2021/12/16 08:17:58;;;;;;;134.70;45.60;;;;;;;;;;5032526;28;20036;-66
2021/12/16 08:20:23;;;;;;;125.63;45.87;;;;;;;;;;5028679;28;20029;-66
2021/12/16 08:22:50;;;;;;;116.93;42.13;;;;;;;;;;5029399;28;20300;-66
2021/12/16 08:25:16;;;;;;;107.38;41.47;;;;;;;;;;5029740;28;20105;-67
2021/12/16 08:27:42;;;;;;;118.32;44.10;;;;;;;;;;5029952;28;20025;-67
2021/12/16 08:30:11;;;;;;;125.35;41.35;;;;;;;;;;5030007;28;20021;-67
2021/12/16 08:32:36;;;;;;;121.47;42.60;;;;;;;;;;5033494;28;20423;-67
2021/12/16 08:35:02;;;;;;;123.38;42.53;;;;;;;;;;5033966;28;20029;-67
2021/12/16 08:37:27;;;;;;;120.40;43.35;;;;;;;;;;5032893;28;20040;-67
2021/12/16 08:39:53;;;;;;;134.67;45.27;;;;;;;;;;5033345;28;20025;-67
2021/12/16 08:42:18;;;;;;;128.60;45.67;;;;;;;;;;5032948;28;20245;-67
2021/12/16 08:44:43;;;;;;;115.32;42.35;;;;;;;;;;5033294;28;20025;-67
2021/12/16 08:47:10;;;;;;;111.38;40.35;;;;;;;;;;5032990;28;20022;-67
2021/12/16 08:49:36;;;;;;;111.90;40.33;;;;;;;;;;5032966;28;20079;-67
2021/12/16 08:52:04;;;;;;;118.13;42.65;;;;;;;;;;5033501;28;20430;-66
2021/12/16 08:54:30;;;;;;;109.53;40.80;;;;;;;;;;5032712;28;20470;-67
2021/12/16 08:56:55;;;;;;;127.40;44.08;;;;;;;;;;5033374;28;20076;-67
2021/12/16 08:59:21;;;;;;;122.72;40.83;;;;;;;;;;5033073;28;20466;-66
2021/12/16 09:01:48;;;;;;;117.95;40.58;;;;;;;;;;5032973;28;20061;-67
2021/12/16 09:04:15;;;;;;;126.40;43.55;;;;;;;;;;5032646;28;20033;-67
2021/12/16 09:06:41;;;;;;;113.28;42.53;;;;;;;;;;5033106;28;20025;-66
2021/12/16 09:09:07;;;;;;;127.10;43.70;;;;;;;;;;5032711;28;20052;-66
2021/12/16 09:11:37;;;;;;;115.03;44.05;;;;;;;;;;5025639;28;20055;-66
2021/12/16 09:14:02;;;;;;;;;;;;;;;;;;5033140;28;20044;-66
2021/12/16 09:16:30;;;;;;;114.50;38.42;;;;;;;;;;5032845;28;19944;-66
2021/12/16 09:18:55;;;;;;;121.20;39.83;;;;;;;;;;5032764;28;20377;-66
2021/12/16 09:21:23;;;;;;;110.65;39.67;;;;;;;;;;5032222;28;20104;-67
2021/12/16 09:23:49;;;;;;;117.75;42.05;;;;;;;;;;5032348;28;20026;-67
2021/12/16 09:26:15;;;;;;;123.40;42.03;;;;;;;;;;5032345;28;20071;-67
2021/12/16 09:28:41;;;;;;;118.88;42.05;;;;;;;;;;5032389;28;20025;-66
2021/12/16 09:31:10;;;;;;;112.38;42.40;;;;;;;;;;5032230;28;20062;-66
2021/12/16 09:33:36;;;;;;;121.35;42.35;;;;;;;;;;5032597;28;20013;-67
2021/12/16 09:36:03;;;;;;;133.80;47.00;;;;;;;;;;5032243;28;20311;-67
2021/12/16 09:38:28;;;;;;;135.63;46.95;;;;;;;;;;5032301;28;20017;-67
2021/12/16 09:40:55;;;;;;;135.85;45.97;;;;;;;;;;5031510;28;20040;-67
2021/12/16 09:43:25;;;;;;;134.15;45.85;;;;;;;;;;5032351;28;20061;-67
2021/12/16 09:45:51;;;;;;;133.38;47.35;;;;;;;;;;5032487;28;20021;-64
2021/12/16 09:48:17;;;;;;;123.90;43.88;;;;;;;;;;5031973;28;20017;-64
2021/12/16 09:50:42;;;;;;;129.95;44.22;;;;;;;;;;5031849;28;20028;-64
2021/12/16 09:53:07;;;;;;;132.27;47.30;;;;;;;;;;5031830;28;20330;-64
2021/12/16 09:55:34;;;;;;;131.10;46.30;;;;;;;;;;5031539;28;20584;-64
2021/12/16 09:58:00;;;;;;;136.85;46.40;;;;;;;;;;5031889;28;20581;-64
2021/12/16 10:00:27;;;;;;;152.02;49.22;;;;;;;;;;5031677;28;20470;-64
2021/12/16 10:02:53;;;;;;;151.40;49.85;;;;;;;;;;5031963;28;20466;-66
2021/12/16 10:05:19;;;;;;;140.93;50.50;;;;;;;;;;5031704;28;20101;-66
2021/12/16 10:07:44;;;;;;;132.27;49.63;;;;;;;;;;5031965;28;20021;-66
2021/12/16 10:10:12;;;;;;;144.02;49.38;;;;;;;;;;5031210;28;20106;-66
2021/12/16 10:12:41;;;;;;;139.82;47.42;;;;;;;;;;5031816;28;20024;-66
2021/12/16 10:17:52;;;;;;;145.98;48.60;;;;;;;;;;5031845;28;20029;-66
2021/12/16 10:20:22;;;;;;;151.32;47.92;;;;;;;;;;5031143;28;20052;-66
2021/12/16 10:22:48;;;;;;;133.30;47.50;;;;;;;;;;5031996;28;20385;-66
2021/12/16 10:25:31;;;;;;;139.63;49.30;;;;;;;;;;5031459;28;20021;-66
2021/12/16 10:28:07;;;;;;;125.63;44.42;;;;;;;;;;5031443;28;20031;-65
2021/12/16 10:30:58;;;;;;;119.10;44.97;;;;;;;;;;5031122;28;20025;-66
2021/12/16 10:33:36;;;;;;;126.75;44.47;;;;;;;;;;5023933;28;20107;-66
2021/12/16 10:36:15;;;;;;;122.45;45.80;;;;;;;;;;5031321;28;20017;-66
2021/12/16 10:38:46;;;;;;;139.02;44.55;;;;;;;;;;5031189;28;20018;-66
2021/12/16 10:41:19;;;;;;;141.25;43.03;;;;;;;;;;5029196;28;20110;-66
2021/12/16 10:43:46;;;;;;;120.65;43.90;;;;;;;;;;5031110;28;20056;-66
2021/12/16 10:46:13;;;;;;;122.10;43.15;;;;;;;;;;5030876;28;20025;-66
2021/12/16 10:48:41;;;;;;;113.32;38.20;;;;;;;;;;5049466;28;20427;-66
2021/12/16 10:51:07;;;;;;;117.47;41.67;;;;;;;;;;5050678;28;20023;-66
2021/12/16 10:53:42;;;;;;;117.20;45.00;;;;;;;;;;5050180;28;20013;-66
2021/12/16 10:56:07;;;;;;;107.30;40.25;;;;;;;;;;5050747;28;20017;-66
2021/12/16 10:58:51;;;;;;;126.07;41.95;;;;;;;;;;5051031;28;20549;-66
2021/12/16 11:01:35;;;;;;;111.93;39.95;;;;;;;;;;5016949;28;20024;-66
2021/12/16 11:04:00;;;;;;;109.80;42.97;;;;;;;;;;5030691;28;20474;-66
2021/12/16 11:06:30;;;;;;;127.57;44.38;;;;;;;;;;5029894;28;20052;-67
2021/12/16 11:08:55;;;;;;;119.63;44.53;;;;;;;;;;5030693;28;20017;-67
2021/12/16 11:11:29;;;;;;;131.82;48.20;;;;;;;;;;5030220;28;20385;-67
2021/12/16 11:14:04;;;;;;;138.95;46.08;;;;;;;;;;5030881;28;20013;-67
2021/12/16 11:16:30;;;;;;;125.78;43.38;;;;;;;;;;5030756;28;20375;-67
2021/12/16 11:18:55;;;;;;;128.52;47.33;;;;;;;;;;5030223;28;20044;-65
2021/12/16 11:21:20;;;;;;;131.10;47.90;;;;;;;;;;5030004;28;20477;-65
2021/12/16 11:23:50;;;;;;;124.70;47.33;;;;;;;;;;5030461;28;20263;-67
2021/12/16 11:26:17;;;;;;;122.90;46.00;;;;;;;;;;5030302;28;20045;-67
2021/12/16 11:28:44;;;;;;;120.40;46.28;;;;;;;;;;5030238;28;20343;-67
2021/12/16 11:31:11;;;;;;;118.60;44.40;;;;;;;;;;5029852;28;20017;-67
2021/12/16 11:33:38;;;;;;;129.50;44.35;;;;;;;;;;5030173;28;20449;-67
2021/12/16 11:36:03;;;;;;;129.75;45.45;;;;;;;;;;5030124;28;20014;-67
2021/12/16 11:38:35;;;;;;;134.00;49.42;;;;;;;;;;5030325;28;20010;-68
2021/12/16 11:41:00;;;;;;;134.68;44.65;;;;;;;;;;5029971;28;20261;-68
2021/12/16 11:43:31;;;;;;;136.18;45.75;;;;;;;;;;5030018;28;20495;-68
2021/12/16 11:45:57;;;;;;;129.02;45.22;;;;;;;;;;5030100;28;20036;-67
2021/12/16 11:48:35;;;;;;;127.03;46.88;;;;;;;;;;5029879;28;20025;-67
2021/12/16 11:51:05;;;;;;;139.10;50.65;;;;;;;;;;5029559;28;20079;-68
2021/12/16 11:53:38;;;;;;;143.40;52.17;;;;;;;;;;5030075;28;20510;-67
2021/12/16 11:56:03;;;;;;;135.25;48.30;;;;;;;;;;5030205;28;20017;-67
2021/12/16 11:58:30;;;;;;;136.02;48.28;;;;;;;;;;5029915;28;20018;-67
2021/12/16 12:00:58;;;;;;;154.88;52.10;;;;;;;;;;5029725;28;20048;-67
2021/12/16 12:03:31;;;;;;;151.18;49.75;;;;;;;;;;5029745;28;20136;-68
2021/12/16 12:05:57;;;;;;;142.45;48.03;;;;;;;;;;5033859;28;20059;-67
2021/12/16 12:08:23;;;;;;;160.75;56.47;;;;;;;;;;5033762;28;20025;-68
2021/12/16 12:10:48;;;;;;;163.23;53.85;;;;;;;;;;5033513;28;20021;-67
2021/12/16 12:13:16;;;;;;;159.90;54.45;;;;;;;;;;5015619;28;20075;-67
2021/12/16 12:15:50;;;;;;;161.20;52.17;;;;;;;;;;5033684;28;20395;-67
2021/12/16 12:18:28;;;;;;;159.70;51.55;;;;;;;;;;5033706;28;20049;-67
2021/12/16 12:20:54;;;;;;;154.15;52.78;;;;;;;;;;5033713;28;20295;-67
2021/12/16 12:23:19;;;;;;;179.77;58.43;;;;;;;;;;5033902;28;20394;-67
2021/12/16 12:25:44;;;;;;;162.75;53.42;;;;;;;;;;5033823;28;20263;-67
2021/12/16 12:28:09;;;;;;;171.57;54.05;;;;;;;;;;5033343;28;20051;-67
2021/12/16 12:30:34;;;;;;;175.40;54.85;;;;;;;;;;5033395;28;20033;-68
2021/12/16 12:33:00;;;;;;;186.55;57.75;;;;;;;;;;5034409;28;20017;-67
2021/12/16 12:35:27;;;;;;;178.25;54.38;;;;;;;;;;5033260;28;20022;-68
2021/12/16 12:37:54;;;;;;;198.02;59.42;;;;;;;;;;5033434;28;20021;-67
2021/12/16 12:40:21;;;;;;;181.57;58.50;;;;;;;;;;5033278;28;20117;-67
2021/12/16 12:42:47;;;;;;;203.07;58.88;;;;;;;;;;5033476;28;20021;-67
2021/12/16 12:45:15;;;;;;;183.90;57.67;;;;;;;;;;5033193;28;20147;-67
2021/12/16 12:47:41;;;;;;;189.05;54.30;;;;;;;;;;5033756;28;20424;-67
2021/12/16 12:50:10;;;;;;;183.70;59.10;;;;;;;;;;5032728;28;20025;-67
2021/12/16 12:52:36;;;;;;;199.88;59.05;;;;;;;;;;5033349;28;20014;-67
2021/12/16 12:55:04;;;;;;;169.93;55.72;;;;;;;;;;5033131;28;20527;-68
2021/12/16 12:57:32;;;;;;;180.98;52.70;;;;;;;;;;5032775;28;20549;-67
2021/12/16 12:59:58;;;;;;;185.98;55.90;;;;;;;;;;5033160;28;20030;-67
2021/12/16 13:02:29;;;;;;;178.13;54.05;;;;;;;;;;5032632;28;20032;-67
2021/12/16 13:05:00;;;;;;;191.07;56.97;;;;;;;;;;5031480;28;20055;-67
2021/12/16 13:07:33;;;;;;;200.85;59.60;;;;;;;;;;5032285;28;20041;-67
2021/12/16 13:10:03;;;;;;;198.25;61.30;;;;;;;;;;5032737;28;20500;-68
2021/12/16 13:15:21;;;;;;;179.52;53.63;;;;;;;;;;5033063;28;20508;-67
2021/12/16 13:23:35;;;;;;;183.32;55.70;;;;;;;;;;5032958;28;20468;-67
2021/12/16 13:28:58;;;;;;;182.80;52.20;;;;;;;;;;5032816;28;20561;-67
2021/12/16 13:31:23;;;;;;;;;;;;;;;;;;5032576;28;20021;-67
2021/12/16 13:33:55;;;;;;;175.73;50.97;;;;;;;;;;5032642;28;19912;-67
2021/12/16 13:36:39;;;;;;;198.35;56.45;;;;;;;;;;5032644;28;20318;-68
2021/12/16 13:39:07;;;;;;;181.00;53.83;;;;;;;;;;5032579;28;20162;-65
2021/12/16 13:41:34;;;;;;;174.40;52.75;;;;;;;;;;5031973;28;20025;-65
2021/12/16 13:44:14;;;;;;;196.18;56.95;;;;;;;;;;5032266;28;20033;-65
2021/12/16 13:47:01;;;;;;;192.88;55.90;;;;;;;;;;5032504;28;20021;-65
2021/12/16 14:03:51;;;;;;;160.98;52.00;;;;;;;;;;5031745;28;20040;-67
2021/12/16 14:06:32;;;;;;;160.15;47.80;;;;;;;;;;5013856;28;20022;-66
2021/12/16 14:09:10;;;;;;;151.77;49.28;;;;;;;;;;5032121;28;20032;-66
2021/12/16 14:14:41;;;;;;;151.07;48.13;;;;;;;;;;5031852;28;20051;-66
2021/12/16 14:17:27;;;;;;;168.35;49.15;;;;;;;;;;5031521;28;20389;-66
2021/12/16 14:34:43;;;;;;;143.00;46.15;;;;;;;;;;5031275;28;20115;-66
2021/12/16 14:39:47;;;;;;;141.77;45.42;;;;;;;;;;5031186;28;20032;-67
2021/12/16 14:45:16;;;;;;;132.80;43.83;;;;;;;;;;5046583;28;20032;-66
2021/12/16 14:50:20;;;;;;;135.77;43.17;;;;;;;;;;5030158;28;20026;-67
2021/12/16 14:52:45;;;;;;;;;;;;;;;;;;5031407;28;20048;-67
2021/12/16 14:55:13;;;;;;;139.85;42.25;;;;;;;;;;5030877;28;19936;-67
2021/12/16 14:57:39;;;;;;;133.88;44.22;;;;;;;;;;5030555;28;20017;-66
2021/12/16 15:00:10;;;;;;;122.80;42.05;;;;;;;;;;5030873;28;20029;-66
2021/12/16 15:02:38;;;;;;;145.35;44.78;;;;;;;;;;5030453;28;20132;-67
2021/12/16 15:05:03;;;;;;;136.10;42.03;;;;;;;;;;5030724;28;20040;-66
2021/12/16 15:07:30;;;;;;;133.52;43.25;;;;;;;;;;5030313;28;20021;-67
2021/12/16 15:09:56;;;;;;;139.65;41.67;;;;;;;;;;5030502;28;20025;-67
2021/12/16 15:12:39;;;;;;;129.27;40.20;;;;;;;;;;5030284;28;20100;-67
2021/12/16 15:37:34;;;;;;;130.25;41.75;;;;;;;;;;5030417;28;20018;-67
2021/12/16 15:40:31;;;;;;;131.98;42.78;;;;;;;;;;5030003;28;20022;-67
2021/12/16 15:42:59;;;;;;;123.38;39.83;;;;;;;;;;5030448;28;20031;-66
2021/12/16 15:45:27;;;;;;;145.60;44.35;;;;;;;;;;5029539;28;20036;-67
2021/12/16 15:47:55;;;;;;;128.90;39.97;;;;;;;;;;5030190;28;20040;-66
2021/12/16 15:50:24;;;;;;;149.20;42.97;;;;;;;;;;5029636;28;20370;-66
2021/12/16 15:52:50;;;;;;;142.90;44.55;;;;;;;;;;5030274;28;20044;-67
2021/12/16 15:55:21;;;;;;;151.52;46.50;;;;;;;;;;5030198;28;20014;-67
2021/12/16 15:57:46;;;;;;;215.77;61.25;;;;;;;;;;5029960;28;20017;-66
2021/12/16 16:00:14;;;;;;;207.98;66.43;;;;;;;;;;5029548;28;20072;-66
2021/12/16 16:02:39;;;;;;;197.50;59.08;;;;;;;;;;5030130;28;20100;-67
2021/12/16 16:05:05;;;;;;;230.00;65.05;;;;;;;;;;5029701;28;20133;-67
2021/12/16 16:07:33;;;;;;;213.93;65.60;;;;;;;;;;5030013;28;20087;-66
2021/12/16 16:09:59;;;;;;;206.93;62.45;;;;;;;;;;5029756;28;20032;-66
2021/12/16 16:12:27;;;;;;;188.93;56.03;;;;;;;;;;5029633;28;20701;-66
2021/12/16 16:14:59;;;;;;;192.38;56.55;;;;;;;;;;5029513;28;20259;-66
2021/12/16 16:17:25;;;;;;;193.48;57.60;;;;;;;;;;5030154;28;20047;-66
2021/12/16 16:19:51;;;;;;;200.38;57.22;;;;;;;;;;5041670;28;20608;-66
2021/12/16 16:22:17;;;;;;;194.57;61.30;;;;;;;;;;5038327;28;20017;-66
2021/12/16 16:24:44;;;;;;;217.95;60.88;;;;;;;;;;5035522;28;20021;-66
2021/12/16 16:27:12;;;;;;;177.25;55.25;;;;;;;;;;5030183;28;20017;-67
2021/12/16 16:29:38;;;;;;;167.13;54.53;;;;;;;;;;5029733;28;20026;-66
2021/12/16 16:32:04;;;;;;;166.80;48.95;;;;;;;;;;5029708;28;20212;-66
2021/12/16 16:34:39;;;;;;;153.05;49.47;;;;;;;;;;5030056;28;20021;-66
2021/12/16 16:37:05;;;;;;;199.00;63.88;;;;;;;;;;5030085;28;20024;-66
2021/12/16 16:39:33;;;;;;;268.38;96.63;;;;;;;;;;5029804;28;20034;-66
2021/12/16 16:41:59;;;;;;;392.58;140.80;;;;;;;;;;5029311;28;20068;-66
2021/12/16 16:44:25;;;;;;;406.50;149.20;;;;;;;;;;5011908;28;20029;-66
2021/12/16 16:46:57;;;;;;;412.30;150.18;;;;;;;;;;5029661;28;20025;-66
2021/12/16 16:49:30;;;;;;;379.30;139.23;;;;;;;;;;5011950;28;20099;-67
2021/12/16 16:52:04;;;;;;;251.25;88.70;;;;;;;;;;5031383;28;20020;-66
2021/12/16 16:54:31;;;;;;;234.70;83.30;;;;;;;;;;5033260;28;20021;-66
2021/12/16 16:57:02;;;;;;;213.45;76.90;;;;;;;;;;5032917;28;20083;-66
2021/12/16 16:59:30;;;;;;;205.63;67.65;;;;;;;;;;5033252;28;20091;-66
2021/12/16 17:01:56;;;;;;;175.55;59.22;;;;;;;;;;5032634;28;20025;-66
2021/12/16 17:04:21;;;;;;;159.65;49.80;;;;;;;;;;5048687;28;20036;-67
2021/12/16 17:06:50;;;;;;;166.88;50.28;;;;;;;;;;5035012;28;20143;-66
2021/12/16 17:09:16;;;;;;;153.40;47.95;;;;;;;;;;5032193;28;20032;-67
2021/12/16 17:11:47;;;;;;;153.80;48.10;;;;;;;;;;5032618;28;20018;-66
2021/12/16 17:14:18;;;;;;;140.10;47.60;;;;;;;;;;5032737;28;20017;-66
2021/12/16 17:19:39;;;;;;;153.80;47.70;;;;;;;;;;5044663;28;20032;-66
2021/12/16 17:22:14;;;;;;;173.38;49.15;;;;;;;;;;5048704;28;20032;-66
2021/12/16 17:24:42;;;;;;;135.63;45.85;;;;;;;;;;5052569;28;20032;-66
2021/12/16 17:27:09;;;;;;;135.98;44.90;;;;;;;;;;5052559;28;20051;-66
2021/12/16 17:29:39;;;;;;;148.98;45.72;;;;;;;;;;5052607;28;20028;-66
2021/12/16 17:32:06;;;;;;;143.68;43.22;;;;;;;;;;5049016;28;20658;-66
2021/12/16 17:34:36;;;;;;;162.80;48.47;;;;;;;;;;5032332;28;20040;-67
2021/12/16 17:37:01;;;;;;;163.85;52.35;;;;;;;;;;5032309;28;20013;-66
2021/12/16 17:39:32;;;;;;;154.30;46.20;;;;;;;;;;5032108;28;20029;-66
2021/12/16 17:42:00;;;;;;;163.50;49.17;;;;;;;;;;5032260;28;20017;-66
2021/12/16 17:44:26;;;;;;;158.90;48.47;;;;;;;;;;5032364;28;20030;-66
2021/12/16 17:46:53;;;;;;;164.80;52.53;;;;;;;;;;5032124;28;20049;-66
2021/12/16 17:49:18;;;;;;;171.98;48.58;;;;;;;;;;5032543;28;20025;-66